sensor_id;sensor_type;location;lat;lon;timestamp;P1;durP1;ratioP1;P2;durP2;ratioP2
7929;SDS011;4010;42.698;23.124;2023-07-30T00:01:25;3.67;;;3.30;;
7929;SDS011;4010;42.698;23.124;2023-07-30T00:03:52;3.93;;;3.37;;
7929;SDS011;4010;42.698;23.124;2023-07-30T00:06:19;3.20;;;2.90;;
7929;SDS011;4010;42.698;23.124;2023-07-30T00:08:45;3.37;;;3.07;;
7929;SDS011;4010;42.698;23.124;2023-07-30T00:11:12;4.20;;;3.10;;
7929;SDS011;4010;42.698;23.124;2023-07-30T00:13:40;3.70;;;3.40;;
7929;SDS011;4010;42.698;23.124;2023-07-30T00:16:07;3.40;;;3.10;;
7929;SDS011;4010;42.698;23.124;2023-07-30T00:18:33;3.40;;;2.97;;
7929;SDS011;4010;42.698;23.124;2023-07-30T00:21:00;3.80;;;3.50;;
7929;SDS011;4010;42.698;23.124;2023-07-30T00:23:27;3.40;;;3.10;;
7929;SDS011;4010;42.698;23.124;2023-07-30T00:25:53;3.70;;;3.30;;
7929;SDS011;4010;42.698;23.124;2023-07-30T00:28:20;3.90;;;3.60;;
7929;SDS011;4010;42.698;23.124;2023-07-30T00:30:48;4.10;;;3.80;;
7929;SDS011;4010;42.698;23.124;2023-07-30T00:33:14;3.80;;;3.43;;
7929;SDS011;4010;42.698;23.124;2023-07-30T00:35:41;3.87;;;3.57;;
7929;SDS011;4010;42.698;23.124;2023-07-30T00:38:08;3.97;;;3.53;;
7929;SDS011;4010;42.698;23.124;2023-07-30T00:40:39;3.63;;;3.40;;
7929;SDS011;4010;42.698;23.124;2023-07-30T00:43:06;3.97;;;3.40;;
7929;SDS011;4010;42.698;23.124;2023-07-30T00:45:33;3.80;;;3.50;;
7929;SDS011;4010;42.698;23.124;2023-07-30T00:48:01;5.33;;;3.53;;
7929;SDS011;4010;42.698;23.124;2023-07-30T00:50:28;3.57;;;3.27;;
7929;SDS011;4010;42.698;23.124;2023-07-30T00:52:55;3.20;;;2.90;;
7929;SDS011;4010;42.698;23.124;2023-07-30T00:55:22;3.43;;;3.13;;
7929;SDS011;4010;42.698;23.124;2023-07-30T00:57:49;3.40;;;3.20;;
7929;SDS011;4010;42.698;23.124;2023-07-30T01:00:16;3.40;;;3.10;;
7929;SDS011;4010;42.698;23.124;2023-07-30T01:02:43;4.07;;;3.63;;
7929;SDS011;4010;42.698;23.124;2023-07-30T01:05:12;3.83;;;3.53;;
7929;SDS011;4010;42.698;23.124;2023-07-30T01:07:38;3.80;;;3.50;;
7929;SDS011;4010;42.698;23.124;2023-07-30T01:10:05;3.37;;;3.17;;
7929;SDS011;4010;42.698;23.124;2023-07-30T01:12:33;3.70;;;3.40;;
7929;SDS011;4010;42.698;23.124;2023-07-30T01:15:00;3.97;;;3.67;;
7929;SDS011;4010;42.698;23.124;2023-07-30T01:17:28;4.33;;;3.87;;
7929;SDS011;4010;42.698;23.124;2023-07-30T01:19:55;4.63;;;3.60;;
7929;SDS011;4010;42.698;23.124;2023-07-30T01:22:23;3.80;;;3.50;;
7929;SDS011;4010;42.698;23.124;2023-07-30T01:24:50;4.10;;;3.70;;
7929;SDS011;4010;42.698;23.124;2023-07-30T01:27:18;4.23;;;3.80;;
7929;SDS011;4010;42.698;23.124;2023-07-30T01:29:51;4.27;;;3.87;;
7929;SDS011;4010;42.698;23.124;2023-07-30T01:32:21;4.10;;;3.80;;
7929;SDS011;4010;42.698;23.124;2023-07-30T01:34:51;3.83;;;3.53;;
7929;SDS011;4010;42.698;23.124;2023-07-30T01:37:19;5.23;;;3.80;;
7929;SDS011;4010;42.698;23.124;2023-07-30T01:39:48;4.30;;;3.90;;
7929;SDS011;4010;42.698;23.124;2023-07-30T01:42:16;5.23;;;3.90;;
7929;SDS011;4010;42.698;23.124;2023-07-30T01:44:43;4.90;;;4.10;;
7929;SDS011;4010;42.698;23.124;2023-07-30T01:47:10;4.13;;;3.83;;
7929;SDS011;4010;42.698;23.124;2023-07-30T01:49:36;6.43;;;3.90;;
7929;SDS011;4010;42.698;23.124;2023-07-30T01:52:03;4.60;;;4.20;;
7929;SDS011;4010;42.698;23.124;2023-07-30T01:54:30;4.00;;;3.60;;
7929;SDS011;4010;42.698;23.124;2023-07-30T01:56:59;4.53;;;4.13;;
7929;SDS011;4010;42.698;23.124;2023-07-30T01:59:26;4.43;;;4.03;;
7929;SDS011;4010;42.698;23.124;2023-07-30T02:01:53;4.90;;;4.17;;
7929;SDS011;4010;42.698;23.124;2023-07-30T02:04:19;5.63;;;3.43;;
7929;SDS011;4010;42.698;23.124;2023-07-30T02:06:46;4.37;;;3.73;;
7929;SDS011;4010;42.698;23.124;2023-07-30T02:09:13;4.10;;;3.70;;
7929;SDS011;4010;42.698;23.124;2023-07-30T02:11:40;4.57;;;3.90;;
7929;SDS011;4010;42.698;23.124;2023-07-30T02:14:08;4.40;;;4.00;;
7929;SDS011;4010;42.698;23.124;2023-07-30T02:16:35;5.13;;;3.60;;
7929;SDS011;4010;42.698;23.124;2023-07-30T02:19:03;4.37;;;4.07;;
7929;SDS011;4010;42.698;23.124;2023-07-30T02:21:30;4.07;;;3.77;;
7929;SDS011;4010;42.698;23.124;2023-07-30T02:23:58;5.67;;;3.80;;
7929;SDS011;4010;42.698;23.124;2023-07-30T02:26:25;5.17;;;3.93;;
7929;SDS011;4010;42.698;23.124;2023-07-30T02:28:52;4.10;;;3.80;;
7929;SDS011;4010;42.698;23.124;2023-07-30T02:31:20;4.00;;;3.60;;
7929;SDS011;4010;42.698;23.124;2023-07-30T02:33:47;4.30;;;3.90;;
7929;SDS011;4010;42.698;23.124;2023-07-30T02:36:13;4.20;;;3.90;;
7929;SDS011;4010;42.698;23.124;2023-07-30T02:38:40;4.27;;;3.87;;
7929;SDS011;4010;42.698;23.124;2023-07-30T02:41:07;4.10;;;3.80;;
7929;SDS011;4010;42.698;23.124;2023-07-30T02:43:33;4.47;;;3.77;;
7929;SDS011;4010;42.698;23.124;2023-07-30T02:46:00;5.87;;;3.90;;
7929;SDS011;4010;42.698;23.124;2023-07-30T02:48:28;3.87;;;3.60;;
7929;SDS011;4010;42.698;23.124;2023-07-30T02:50:55;4.30;;;3.90;;
7929;SDS011;4010;42.698;23.124;2023-07-30T02:53:21;3.90;;;3.60;;
7929;SDS011;4010;42.698;23.124;2023-07-30T02:55:48;4.63;;;3.60;;
7929;SDS011;4010;42.698;23.124;2023-07-30T02:58:14;3.77;;;3.47;;
7929;SDS011;4010;42.698;23.124;2023-07-30T03:00:41;7.23;;;3.90;;
7929;SDS011;4010;42.698;23.124;2023-07-30T03:03:08;4.50;;;4.10;;
7929;SDS011;4010;42.698;23.124;2023-07-30T03:05:36;5.50;;;3.73;;
7929;SDS011;4010;42.698;23.124;2023-07-30T03:08:03;5.53;;;3.90;;
7929;SDS011;4010;42.698;23.124;2023-07-30T03:10:29;4.20;;;3.80;;
7929;SDS011;4010;42.698;23.124;2023-07-30T03:12:56;5.77;;;4.10;;
7929;SDS011;4010;42.698;23.124;2023-07-30T03:15:23;4.47;;;4.10;;
7929;SDS011;4010;42.698;23.124;2023-07-30T03:17:49;5.17;;;3.97;;
7929;SDS011;4010;42.698;23.124;2023-07-30T03:20:16;4.00;;;3.57;;
7929;SDS011;4010;42.698;23.124;2023-07-30T03:22:44;4.30;;;3.90;;
7929;SDS011;4010;42.698;23.124;2023-07-30T03:25:10;4.20;;;3.80;;
7929;SDS011;4010;42.698;23.124;2023-07-30T03:27:37;4.43;;;3.97;;
7929;SDS011;4010;42.698;23.124;2023-07-30T03:30:04;3.90;;;3.60;;
7929;SDS011;4010;42.698;23.124;2023-07-30T03:32:32;4.17;;;3.77;;
7929;SDS011;4010;42.698;23.124;2023-07-30T03:34:58;4.27;;;3.63;;
7929;SDS011;4010;42.698;23.124;2023-07-30T03:37:25;4.00;;;3.70;;
7929;SDS011;4010;42.698;23.124;2023-07-30T03:39:53;4.80;;;4.40;;
7929;SDS011;4010;42.698;23.124;2023-07-30T03:42:20;4.73;;;4.23;;
7929;SDS011;4010;42.698;23.124;2023-07-30T03:44:46;4.57;;;4.17;;
7929;SDS011;4010;42.698;23.124;2023-07-30T03:47:13;4.50;;;4.10;;
7929;SDS011;4010;42.698;23.124;2023-07-30T03:49:39;6.20;;;3.93;;
7929;SDS011;4010;42.698;23.124;2023-07-30T03:52:06;7.23;;;4.23;;
7929;SDS011;4010;42.698;23.124;2023-07-30T03:54:33;6.70;;;4.10;;
7929;SDS011;4010;42.698;23.124;2023-07-30T03:57:01;4.03;;;3.73;;
7929;SDS011;4010;42.698;23.124;2023-07-30T03:59:28;3.50;;;3.00;;
7929;SDS011;4010;42.698;23.124;2023-07-30T04:01:55;3.07;;;2.80;;
7929;SDS011;4010;42.698;23.124;2023-07-30T04:04:22;4.10;;;2.77;;
7929;SDS011;4010;42.698;23.124;2023-07-30T04:06:48;3.10;;;2.80;;
7929;SDS011;4010;42.698;23.124;2023-07-30T04:09:15;3.03;;;2.60;;
7929;SDS011;4010;42.698;23.124;2023-07-30T04:11:41;5.03;;;2.60;;
7929;SDS011;4010;42.698;23.124;2023-07-30T04:14:09;3.83;;;2.70;;
7929;SDS011;4010;42.698;23.124;2023-07-30T04:16:36;2.83;;;2.50;;
7929;SDS011;4010;42.698;23.124;2023-07-30T04:19:03;3.30;;;2.70;;
7929;SDS011;4010;42.698;23.124;2023-07-30T04:21:29;2.93;;;2.70;;
7929;SDS011;4010;42.698;23.124;2023-07-30T04:23:56;2.50;;;2.30;;
7929;SDS011;4010;42.698;23.124;2023-07-30T04:26:23;2.70;;;2.50;;
7929;SDS011;4010;42.698;23.124;2023-07-30T04:28:49;2.63;;;2.43;;
7929;SDS011;4010;42.698;23.124;2023-07-30T04:31:17;2.97;;;2.60;;
7929;SDS011;4010;42.698;23.124;2023-07-30T04:33:44;2.70;;;2.50;;
7929;SDS011;4010;42.698;23.124;2023-07-30T04:36:11;2.70;;;2.50;;
7929;SDS011;4010;42.698;23.124;2023-07-30T04:38:37;4.07;;;2.50;;
7929;SDS011;4010;42.698;23.124;2023-07-30T04:41:04;2.77;;;2.57;;
7929;SDS011;4010;42.698;23.124;2023-07-30T04:43:30;2.97;;;2.70;;
7929;SDS011;4010;42.698;23.124;2023-07-30T04:45:57;3.63;;;2.73;;
7929;SDS011;4010;42.698;23.124;2023-07-30T04:48:25;2.93;;;2.73;;
7929;SDS011;4010;42.698;23.124;2023-07-30T04:50:52;4.80;;;3.10;;
7929;SDS011;4010;42.698;23.124;2023-07-30T04:53:18;3.50;;;3.20;;
7929;SDS011;4010;42.698;23.124;2023-07-30T04:55:45;3.30;;;3.00;;
7929;SDS011;4010;42.698;23.124;2023-07-30T04:58:12;4.13;;;2.77;;
7929;SDS011;4010;42.698;23.124;2023-07-30T05:00:39;5.30;;;3.10;;
7929;SDS011;4010;42.698;23.124;2023-07-30T05:03:05;4.70;;;2.80;;
7929;SDS011;4010;42.698;23.124;2023-07-30T05:05:33;4.70;;;3.30;;
7929;SDS011;4010;42.698;23.124;2023-07-30T05:08:00;3.60;;;3.30;;
7929;SDS011;4010;42.698;23.124;2023-07-30T05:10:27;3.17;;;2.60;;
7929;SDS011;4010;42.698;23.124;2023-07-30T05:12:53;3.93;;;3.30;;
7929;SDS011;4010;42.698;23.124;2023-07-30T05:15:20;3.43;;;2.97;;
7929;SDS011;4010;42.698;23.124;2023-07-30T05:17:47;4.57;;;2.90;;
7929;SDS011;4010;42.698;23.124;2023-07-30T05:20:13;3.37;;;3.17;;
7929;SDS011;4010;42.698;23.124;2023-07-30T05:22:41;4.40;;;2.77;;
7929;SDS011;4010;42.698;23.124;2023-07-30T05:25:08;3.80;;;3.10;;
7929;SDS011;4010;42.698;23.124;2023-07-30T05:27:35;3.00;;;2.80;;
7929;SDS011;4010;42.698;23.124;2023-07-30T05:30:02;4.13;;;2.87;;
7929;SDS011;4010;42.698;23.124;2023-07-30T05:32:28;3.10;;;2.90;;
7929;SDS011;4010;42.698;23.124;2023-07-30T05:34:55;3.10;;;2.90;;
7929;SDS011;4010;42.698;23.124;2023-07-30T05:37:22;3.23;;;3.03;;
7929;SDS011;4010;42.698;23.124;2023-07-30T05:39:50;3.93;;;2.97;;
7929;SDS011;4010;42.698;23.124;2023-07-30T05:42:17;3.00;;;2.80;;
7929;SDS011;4010;42.698;23.124;2023-07-30T05:44:43;3.00;;;2.80;;
7929;SDS011;4010;42.698;23.124;2023-07-30T05:47:10;3.40;;;3.10;;
7929;SDS011;4010;42.698;23.124;2023-07-30T05:49:37;3.10;;;2.90;;
7929;SDS011;4010;42.698;23.124;2023-07-30T05:52:04;3.50;;;3.17;;
7929;SDS011;4010;42.698;23.124;2023-07-30T05:54:31;3.10;;;2.90;;
7929;SDS011;4010;42.698;23.124;2023-07-30T05:56:59;3.33;;;3.03;;
7929;SDS011;4010;42.698;23.124;2023-07-30T05:59:26;3.47;;;3.17;;
7929;SDS011;4010;42.698;23.124;2023-07-30T06:01:52;4.00;;;3.63;;
7929;SDS011;4010;42.698;23.124;2023-07-30T06:04:22;4.10;;;3.53;;
7929;SDS011;4010;42.698;23.124;2023-07-30T06:06:48;3.37;;;3.07;;
7929;SDS011;4010;42.698;23.124;2023-07-30T06:09:15;4.10;;;3.60;;
7929;SDS011;4010;42.698;23.124;2023-07-30T06:11:42;3.90;;;3.53;;
7929;SDS011;4010;42.698;23.124;2023-07-30T06:14:10;3.70;;;3.40;;
7929;SDS011;4010;42.698;23.124;2023-07-30T06:16:36;5.00;;;3.30;;
7929;SDS011;4010;42.698;23.124;2023-07-30T06:19:03;3.60;;;3.30;;
7929;SDS011;4010;42.698;23.124;2023-07-30T06:21:30;4.17;;;3.23;;
7929;SDS011;4010;42.698;23.124;2023-07-30T06:23:56;7.17;;;3.20;;
7929;SDS011;4010;42.698;23.124;2023-07-30T06:26:23;5.20;;;3.57;;
7929;SDS011;4010;42.698;23.124;2023-07-30T06:28:49;4.73;;;3.30;;
7929;SDS011;4010;42.698;23.124;2023-07-30T06:31:17;3.73;;;3.40;;
7929;SDS011;4010;42.698;23.124;2023-07-30T06:33:44;7.40;;;3.63;;
7929;SDS011;4010;42.698;23.124;2023-07-30T06:36:11;3.80;;;3.50;;
7929;SDS011;4010;42.698;23.124;2023-07-30T06:38:37;4.20;;;3.70;;
7929;SDS011;4010;42.698;23.124;2023-07-30T06:41:04;4.47;;;3.07;;
7929;SDS011;4010;42.698;23.124;2023-07-30T06:43:31;4.23;;;3.90;;
7929;SDS011;4010;42.698;23.124;2023-07-30T06:45:59;3.80;;;3.40;;
7929;SDS011;4010;42.698;23.124;2023-07-30T06:48:27;3.90;;;3.50;;
7929;SDS011;4010;42.698;23.124;2023-07-30T06:50:53;3.90;;;3.50;;
7929;SDS011;4010;42.698;23.124;2023-07-30T06:53:20;4.50;;;3.70;;
7929;SDS011;4010;42.698;23.124;2023-07-30T06:55:47;3.03;;;2.83;;
7929;SDS011;4010;42.698;23.124;2023-07-30T06:58:13;3.80;;;3.50;;
7929;SDS011;4010;42.698;23.124;2023-07-30T07:00:40;4.60;;;3.17;;
7929;SDS011;4010;42.698;23.124;2023-07-30T07:03:07;4.47;;;3.53;;
7929;SDS011;4010;42.698;23.124;2023-07-30T07:05:35;4.00;;;3.70;;
7929;SDS011;4010;42.698;23.124;2023-07-30T07:08:01;4.23;;;3.60;;
7929;SDS011;4010;42.698;23.124;2023-07-30T07:10:28;3.67;;;3.37;;
7929;SDS011;4010;42.698;23.124;2023-07-30T07:12:55;3.57;;;3.30;;
7929;SDS011;4010;42.698;23.124;2023-07-30T07:15:22;3.90;;;3.60;;
7929;SDS011;4010;42.698;23.124;2023-07-30T07:17:49;4.83;;;3.30;;
7929;SDS011;4010;42.698;23.124;2023-07-30T07:20:16;3.40;;;3.10;;
7929;SDS011;4010;42.698;23.124;2023-07-30T07:22:44;4.73;;;4.20;;
7929;SDS011;4010;42.698;23.124;2023-07-30T07:25:11;4.83;;;4.10;;
7929;SDS011;4010;42.698;23.124;2023-07-30T07:27:38;5.60;;;3.97;;
7929;SDS011;4010;42.698;23.124;2023-07-30T07:30:05;4.03;;;3.73;;
7929;SDS011;4010;42.698;23.124;2023-07-30T07:32:32;4.37;;;4.07;;
7929;SDS011;4010;42.698;23.124;2023-07-30T07:35:03;4.40;;;4.00;;
7929;SDS011;4010;42.698;23.124;2023-07-30T07:37:31;4.43;;;4.03;;
7929;SDS011;4010;42.698;23.124;2023-07-30T07:39:59;4.83;;;4.37;;
7929;SDS011;4010;42.698;23.124;2023-07-30T07:42:26;5.03;;;3.83;;
7929;SDS011;4010;42.698;23.124;2023-07-30T07:44:53;7.43;;;4.30;;
7929;SDS011;4010;42.698;23.124;2023-07-30T07:47:19;4.53;;;4.23;;
7929;SDS011;4010;42.698;23.124;2023-07-30T07:49:46;5.03;;;4.27;;
7929;SDS011;4010;42.698;23.124;2023-07-30T07:52:13;6.27;;;4.43;;
7929;SDS011;4010;42.698;23.124;2023-07-30T07:54:40;4.77;;;4.20;;
7929;SDS011;4010;42.698;23.124;2023-07-30T07:57:08;5.83;;;4.67;;
7929;SDS011;4010;42.698;23.124;2023-07-30T07:59:35;5.03;;;4.27;;
7929;SDS011;4010;42.698;23.124;2023-07-30T08:02:01;5.47;;;4.33;;
7929;SDS011;4010;42.698;23.124;2023-07-30T08:04:28;6.40;;;4.30;;
7929;SDS011;4010;42.698;23.124;2023-07-30T08:06:55;5.27;;;4.20;;
7929;SDS011;4010;42.698;23.124;2023-07-30T08:09:25;7.30;;;6.60;;
7929;SDS011;4010;42.698;23.124;2023-07-30T08:11:51;5.37;;;4.43;;
7929;SDS011;4010;42.698;23.124;2023-07-30T08:14:19;5.27;;;4.70;;
7929;SDS011;4010;42.698;23.124;2023-07-30T08:16:46;5.43;;;4.47;;
7929;SDS011;4010;42.698;23.124;2023-07-30T08:19:13;7.77;;;4.30;;
7929;SDS011;4010;42.698;23.124;2023-07-30T08:21:39;4.77;;;3.83;;
7929;SDS011;4010;42.698;23.124;2023-07-30T08:24:06;6.70;;;4.67;;
7929;SDS011;4010;42.698;23.124;2023-07-30T08:26:33;4.97;;;4.20;;
7929;SDS011;4010;42.698;23.124;2023-07-30T08:28:59;4.77;;;4.37;;
7929;SDS011;4010;42.698;23.124;2023-07-30T08:31:27;7.90;;;4.83;;
7929;SDS011;4010;42.698;23.124;2023-07-30T08:33:54;6.33;;;4.43;;
7929;SDS011;4010;42.698;23.124;2023-07-30T08:36:21;7.27;;;4.83;;
7929;SDS011;4010;42.698;23.124;2023-07-30T08:38:47;5.77;;;4.40;;
7929;SDS011;4010;42.698;23.124;2023-07-30T08:41:14;4.33;;;3.93;;
7929;SDS011;4010;42.698;23.124;2023-07-30T08:43:41;4.23;;;3.87;;
7929;SDS011;4010;42.698;23.124;2023-07-30T08:46:08;4.40;;;3.77;;
7929;SDS011;4010;42.698;23.124;2023-07-30T08:48:36;4.23;;;3.83;;
7929;SDS011;4010;42.698;23.124;2023-07-30T08:51:03;5.53;;;3.63;;
7929;SDS011;4010;42.698;23.124;2023-07-30T08:53:30;5.63;;;4.40;;
7929;SDS011;4010;42.698;23.124;2023-07-30T08:55:57;5.73;;;4.03;;
7929;SDS011;4010;42.698;23.124;2023-07-30T08:58:26;4.77;;;4.20;;
7929;SDS011;4010;42.698;23.124;2023-07-30T09:00:55;10.00;;;4.10;;
7929;SDS011;4010;42.698;23.124;2023-07-30T09:03:23;3.80;;;3.50;;
7929;SDS011;4010;42.698;23.124;2023-07-30T09:05:54;4.33;;;4.03;;
7929;SDS011;4010;42.698;23.124;2023-07-30T09:08:21;4.80;;;4.37;;
7929;SDS011;4010;42.698;23.124;2023-07-30T09:10:48;4.97;;;3.70;;
7929;SDS011;4010;42.698;23.124;2023-07-30T09:13:20;4.50;;;3.60;;
7929;SDS011;4010;42.698;23.124;2023-07-30T09:15:48;3.80;;;3.47;;
7929;SDS011;4010;42.698;23.124;2023-07-30T09:18:16;4.03;;;3.63;;
7929;SDS011;4010;42.698;23.124;2023-07-30T09:20:43;3.83;;;3.43;;
7929;SDS011;4010;42.698;23.124;2023-07-30T09:23:11;3.97;;;3.03;;
7929;SDS011;4010;42.698;23.124;2023-07-30T09:25:38;3.13;;;2.93;;
7929;SDS011;4010;42.698;23.124;2023-07-30T09:28:05;3.80;;;3.43;;
7929;SDS011;4010;42.698;23.124;2023-07-30T09:30:32;4.07;;;3.77;;
7929;SDS011;4010;42.698;23.124;2023-07-30T09:32:59;3.77;;;3.47;;
7929;SDS011;4010;42.698;23.124;2023-07-30T09:35:26;3.83;;;3.53;;
7929;SDS011;4010;42.698;23.124;2023-07-30T09:37:57;4.23;;;3.83;;
7929;SDS011;4010;42.698;23.124;2023-07-30T09:40:31;6.30;;;3.87;;
7929;SDS011;4010;42.698;23.124;2023-07-30T09:42:59;4.00;;;3.70;;
7929;SDS011;4010;42.698;23.124;2023-07-30T09:45:28;3.80;;;3.50;;
7929;SDS011;4010;42.698;23.124;2023-07-30T09:47:54;4.07;;;3.67;;
7929;SDS011;4010;42.698;23.124;2023-07-30T09:50:22;4.67;;;3.80;;
7929;SDS011;4010;42.698;23.124;2023-07-30T09:52:49;4.67;;;4.20;;
7929;SDS011;4010;42.698;23.124;2023-07-30T09:55:16;4.10;;;3.80;;
7929;SDS011;4010;42.698;23.124;2023-07-30T09:57:45;6.57;;;4.17;;
7929;SDS011;4010;42.698;23.124;2023-07-30T10:00:12;5.33;;;4.23;;
7929;SDS011;4010;42.698;23.124;2023-07-30T10:02:39;4.70;;;3.47;;
7929;SDS011;4010;42.698;23.124;2023-07-30T10:05:10;4.40;;;3.90;;
7929;SDS011;4010;42.698;23.124;2023-07-30T10:07:40;4.63;;;4.10;;
7929;SDS011;4010;42.698;23.124;2023-07-30T10:10:12;6.87;;;4.67;;
7929;SDS011;4010;42.698;23.124;2023-07-30T10:12:39;4.50;;;4.10;;
7929;SDS011;4010;42.698;23.124;2023-07-30T10:15:09;4.07;;;3.77;;
7929;SDS011;4010;42.698;23.124;2023-07-30T10:17:36;5.33;;;3.97;;
7929;SDS011;4010;42.698;23.124;2023-07-30T10:20:22;4.30;;;3.90;;
7929;SDS011;4010;42.698;23.124;2023-07-30T10:22:53;4.37;;;3.97;;
7929;SDS011;4010;42.698;23.124;2023-07-30T10:25:21;5.00;;;4.03;;
7929;SDS011;4010;42.698;23.124;2023-07-30T10:27:49;4.60;;;4.20;;
7929;SDS011;4010;42.698;23.124;2023-07-30T10:30:18;6.43;;;5.00;;
7929;SDS011;4010;42.698;23.124;2023-07-30T10:32:59;7.13;;;4.67;;
7929;SDS011;4010;42.698;23.124;2023-07-30T10:35:38;7.00;;;4.90;;
7929;SDS011;4010;42.698;23.124;2023-07-30T10:38:13;7.53;;;4.57;;
7929;SDS011;4010;42.698;23.124;2023-07-30T10:40:40;6.60;;;4.67;;
7929;SDS011;4010;42.698;23.124;2023-07-30T10:43:14;6.13;;;4.57;;
7929;SDS011;4010;42.698;23.124;2023-07-30T10:45:49;5.40;;;3.93;;
7929;SDS011;4010;42.698;23.124;2023-07-30T10:48:16;8.30;;;4.87;;
7929;SDS011;4010;42.698;23.124;2023-07-30T10:50:43;6.10;;;4.70;;
7929;SDS011;4010;42.698;23.124;2023-07-30T10:53:13;4.93;;;4.47;;
7929;SDS011;4010;42.698;23.124;2023-07-30T10:55:40;5.97;;;4.53;;
7929;SDS011;4010;42.698;23.124;2023-07-30T10:58:07;5.23;;;4.60;;
7929;SDS011;4010;42.698;23.124;2023-07-30T11:00:34;5.90;;;4.67;;
7929;SDS011;4010;42.698;23.124;2023-07-30T11:03:02;4.93;;;4.43;;
7929;SDS011;4010;42.698;23.124;2023-07-30T11:05:29;4.87;;;4.37;;
7929;SDS011;4010;42.698;23.124;2023-07-30T11:07:55;6.43;;;4.90;;
7929;SDS011;4010;42.698;23.124;2023-07-30T11:10:22;4.97;;;4.40;;
7929;SDS011;4010;42.698;23.124;2023-07-30T11:12:49;5.47;;;4.40;;
7929;SDS011;4010;42.698;23.124;2023-07-30T11:15:17;6.97;;;4.30;;
7929;SDS011;4010;42.698;23.124;2023-07-30T11:17:43;5.40;;;4.60;;
7929;SDS011;4010;42.698;23.124;2023-07-30T11:20:22;6.13;;;4.73;;
7929;SDS011;4010;42.698;23.124;2023-07-30T11:22:52;5.20;;;4.23;;
7929;SDS011;4010;42.698;23.124;2023-07-30T11:25:18;6.60;;;4.33;;
7929;SDS011;4010;42.698;23.124;2023-07-30T11:27:46;4.57;;;4.03;;
7929;SDS011;4010;42.698;23.124;2023-07-30T11:30:12;4.63;;;4.23;;
7929;SDS011;4010;42.698;23.124;2023-07-30T11:32:39;5.67;;;5.07;;
7929;SDS011;4010;42.698;23.124;2023-07-30T11:35:09;5.20;;;4.70;;
7929;SDS011;4010;42.698;23.124;2023-07-30T11:37:38;5.43;;;4.43;;
7929;SDS011;4010;42.698;23.124;2023-07-30T11:40:07;6.80;;;5.07;;
7929;SDS011;4010;42.698;23.124;2023-07-30T11:42:35;10.13;;;5.07;;
7929;SDS011;4010;42.698;23.124;2023-07-30T11:45:17;6.23;;;4.43;;
7929;SDS011;4010;42.698;23.124;2023-07-30T11:47:45;6.73;;;5.30;;
7929;SDS011;4010;42.698;23.124;2023-07-30T11:50:11;6.20;;;4.70;;
7929;SDS011;4010;42.698;23.124;2023-07-30T11:52:51;5.47;;;4.97;;
7929;SDS011;4010;42.698;23.124;2023-07-30T11:55:19;6.13;;;4.63;;
7929;SDS011;4010;42.698;23.124;2023-07-30T11:57:46;5.47;;;4.70;;
7929;SDS011;4010;42.698;23.124;2023-07-30T12:00:13;5.67;;;4.60;;
7929;SDS011;4010;42.698;23.124;2023-07-30T12:02:40;5.77;;;5.10;;
7929;SDS011;4010;42.698;23.124;2023-07-30T12:05:09;7.60;;;4.70;;
7929;SDS011;4010;42.698;23.124;2023-07-30T12:07:39;6.30;;;4.87;;
7929;SDS011;4010;42.698;23.124;2023-07-30T12:10:09;5.00;;;4.50;;
7929;SDS011;4010;42.698;23.124;2023-07-30T12:12:43;5.13;;;4.57;;
7929;SDS011;4010;42.698;23.124;2023-07-30T12:15:10;8.60;;;4.63;;
7929;SDS011;4010;42.698;23.124;2023-07-30T12:17:38;6.40;;;4.47;;
7929;SDS011;4010;42.698;23.124;2023-07-30T12:20:05;5.43;;;4.20;;
7929;SDS011;4010;42.698;23.124;2023-07-30T12:22:32;5.37;;;4.60;;
7929;SDS011;4010;42.698;23.124;2023-07-30T12:25:00;5.60;;;5.00;;
7929;SDS011;4010;42.698;23.124;2023-07-30T12:27:29;5.90;;;4.77;;
7929;SDS011;4010;42.698;23.124;2023-07-30T12:29:55;5.67;;;4.60;;
7929;SDS011;4010;42.698;23.124;2023-07-30T12:32:22;8.13;;;4.47;;
7929;SDS011;4010;42.698;23.124;2023-07-30T12:34:49;6.10;;;4.67;;
7929;SDS011;4010;42.698;23.124;2023-07-30T12:37:16;7.50;;;4.20;;
7929;SDS011;4010;42.698;23.124;2023-07-30T12:39:43;6.70;;;4.93;;
7929;SDS011;4010;42.698;23.124;2023-07-30T12:42:09;5.27;;;4.77;;
7929;SDS011;4010;42.698;23.124;2023-07-30T12:44:37;4.87;;;4.40;;
7929;SDS011;4010;42.698;23.124;2023-07-30T12:47:04;4.93;;;4.53;;
7929;SDS011;4010;42.698;23.124;2023-07-30T12:49:31;5.20;;;4.70;;
7929;SDS011;4010;42.698;23.124;2023-07-30T12:51:58;4.53;;;4.10;;
7929;SDS011;4010;42.698;23.124;2023-07-30T12:54:24;5.20;;;4.80;;
7929;SDS011;4010;42.698;23.124;2023-07-30T12:56:51;6.17;;;4.60;;
7929;SDS011;4010;42.698;23.124;2023-07-30T12:59:17;7.17;;;4.67;;
7929;SDS011;4010;42.698;23.124;2023-07-30T13:01:45;5.60;;;4.67;;
7929;SDS011;4010;42.698;23.124;2023-07-30T13:04:12;5.70;;;5.13;;
7929;SDS011;4010;42.698;23.124;2023-07-30T13:06:39;4.80;;;4.40;;
7929;SDS011;4010;42.698;23.124;2023-07-30T13:09:05;5.20;;;4.70;;
7929;SDS011;4010;42.698;23.124;2023-07-30T13:11:32;5.80;;;4.80;;
7929;SDS011;4010;42.698;23.124;2023-07-30T13:13:59;5.07;;;4.67;;
7929;SDS011;4010;42.698;23.124;2023-07-30T13:16:26;4.70;;;4.40;;
7929;SDS011;4010;42.698;23.124;2023-07-30T13:18:54;5.40;;;4.90;;
7929;SDS011;4010;42.698;23.124;2023-07-30T13:21:22;4.47;;;4.07;;
7929;SDS011;4010;42.698;23.124;2023-07-30T13:23:48;6.23;;;4.60;;
7929;SDS011;4010;42.698;23.124;2023-07-30T13:26:16;5.40;;;4.90;;
7929;SDS011;4010;42.698;23.124;2023-07-30T13:28:43;5.00;;;4.53;;
7929;SDS011;4010;42.698;23.124;2023-07-30T13:31:10;5.43;;;4.93;;
7929;SDS011;4010;42.698;23.124;2023-07-30T13:33:37;5.93;;;4.87;;
7929;SDS011;4010;42.698;23.124;2023-07-30T13:36:05;6.07;;;5.00;;
7929;SDS011;4010;42.698;23.124;2023-07-30T13:38:33;5.27;;;4.70;;
7929;SDS011;4010;42.698;23.124;2023-07-30T13:41:00;5.30;;;4.80;;
7929;SDS011;4010;42.698;23.124;2023-07-30T13:43:26;5.00;;;4.60;;
7929;SDS011;4010;42.698;23.124;2023-07-30T13:45:53;5.37;;;4.33;;
7929;SDS011;4010;42.698;23.124;2023-07-30T13:48:22;5.30;;;4.90;;
7929;SDS011;4010;42.698;23.124;2023-07-30T13:50:48;5.27;;;4.77;;
7929;SDS011;4010;42.698;23.124;2023-07-30T13:53:16;5.23;;;4.73;;
7929;SDS011;4010;42.698;23.124;2023-07-30T13:55:43;5.13;;;4.73;;
7929;SDS011;4010;42.698;23.124;2023-07-30T13:58:10;5.10;;;4.70;;
7929;SDS011;4010;42.698;23.124;2023-07-30T14:00:37;5.27;;;4.83;;
7929;SDS011;4010;42.698;23.124;2023-07-30T14:03:06;5.60;;;5.20;;
7929;SDS011;4010;42.698;23.124;2023-07-30T14:05:33;9.10;;;5.10;;
7929;SDS011;4010;42.698;23.124;2023-07-30T14:07:59;4.97;;;4.60;;
7929;SDS011;4010;42.698;23.124;2023-07-30T14:10:27;5.10;;;4.57;;
7929;SDS011;4010;42.698;23.124;2023-07-30T14:12:54;5.27;;;4.87;;
7929;SDS011;4010;42.698;23.124;2023-07-30T14:15:21;4.47;;;4.17;;
7929;SDS011;4010;42.698;23.124;2023-07-30T14:17:48;5.67;;;5.00;;
7929;SDS011;4010;42.698;23.124;2023-07-30T14:20:16;5.30;;;4.80;;
7929;SDS011;4010;42.698;23.124;2023-07-30T14:22:42;5.03;;;4.70;;
7929;SDS011;4010;42.698;23.124;2023-07-30T14:25:09;5.10;;;4.70;;
7929;SDS011;4010;42.698;23.124;2023-07-30T14:27:37;4.60;;;4.20;;
7929;SDS011;4010;42.698;23.124;2023-07-30T14:30:04;4.90;;;4.40;;
7929;SDS011;4010;42.698;23.124;2023-07-30T14:32:32;8.57;;;4.30;;
7929;SDS011;4010;42.698;23.124;2023-07-30T14:34:58;4.83;;;4.43;;
7929;SDS011;4010;42.698;23.124;2023-07-30T14:37:25;5.17;;;4.53;;
7929;SDS011;4010;42.698;23.124;2023-07-30T14:39:51;5.13;;;4.73;;
7929;SDS011;4010;42.698;23.124;2023-07-30T14:42:18;5.10;;;4.70;;
7929;SDS011;4010;42.698;23.124;2023-07-30T14:44:46;4.53;;;4.23;;
7929;SDS011;4010;42.698;23.124;2023-07-30T14:47:13;4.93;;;4.60;;
7929;SDS011;4010;42.698;23.124;2023-07-30T14:49:39;4.77;;;4.30;;
7929;SDS011;4010;42.698;23.124;2023-07-30T14:52:07;5.00;;;4.60;;
7929;SDS011;4010;42.698;23.124;2023-07-30T14:54:34;5.70;;;5.30;;
7929;SDS011;4010;42.698;23.124;2023-07-30T14:57:00;5.30;;;4.80;;
7929;SDS011;4010;42.698;23.124;2023-07-30T14:59:27;5.03;;;4.63;;
7929;SDS011;4010;42.698;23.124;2023-07-30T15:01:55;6.37;;;5.10;;